sensor_id;sensor_type;location;lat;lon;timestamp;temperature;humidity
19665;DHT22;9980;51.020;7.772;2023-12-20T00:02:17;9.60;99.90
19665;DHT22;9980;51.020;7.772;2023-12-20T00:04:44;9.60;99.90
19665;DHT22;9980;51.020;7.772;2023-12-20T00:07:11;9.70;99.90
19665;DHT22;9980;51.020;7.772;2023-12-20T00:09:38;9.70;99.90
19665;DHT22;9980;51.020;7.772;2023-12-20T00:12:05;9.70;99.90
19665;DHT22;9980;51.020;7.772;2023-12-20T00:14:32;9.70;99.90
19665;DHT22;9980;51.020;7.772;2023-12-20T00:16:59;9.70;99.90
19665;DHT22;9980;51.020;7.772;2023-12-20T00:19:26;9.70;99.90
19665;DHT22;9980;51.020;7.772;2023-12-20T00:21:53;9.70;99.90
19665;DHT22;9980;51.020;7.772;2023-12-20T00:24:20;9.70;99.90
19665;DHT22;9980;51.020;7.772;2023-12-20T00:26:47;9.70;99.90
19665;DHT22;9980;51.020;7.772;2023-12-20T00:29:14;9.70;99.90
19665;DHT22;9980;51.020;7.772;2023-12-20T00:31:40;9.80;99.90
19665;DHT22;9980;51.020;7.772;2023-12-20T00:34:07;9.80;99.90
19665;DHT22;9980;51.020;7.772;2023-12-20T00:36:35;9.80;99.90
19665;DHT22;9980;51.020;7.772;2023-12-20T00:39:02;9.80;99.90
19665;DHT22;9980;51.020;7.772;2023-12-20T00:41:29;9.80;99.90
19665;DHT22;9980;51.020;7.772;2023-12-20T00:43:56;9.80;99.90
19665;DHT22;9980;51.020;7.772;2023-12-20T00:46:23;9.80;99.90
19665;DHT22;9980;51.020;7.772;2023-12-20T00:48:50;9.80;99.90
19665;DHT22;9980;51.020;7.772;2023-12-20T00:51:17;9.80;99.90
19665;DHT22;9980;51.020;7.772;2023-12-20T00:53:44;9.80;99.90
19665;DHT22;9980;51.020;7.772;2023-12-20T00:56:12;9.90;99.90
19665;DHT22;9980;51.020;7.772;2023-12-20T00:58:39;9.90;99.90
19665;DHT22;9980;51.020;7.772;2023-12-20T01:01:06;9.90;99.90
19665;DHT22;9980;51.020;7.772;2023-12-20T01:03:33;9.90;99.90
19665;DHT22;9980;51.020;7.772;2023-12-20T01:06:00;9.90;99.90
19665;DHT22;9980;51.020;7.772;2023-12-20T01:08:27;9.90;99.90
19665;DHT22;9980;51.020;7.772;2023-12-20T01:10:54;9.90;99.90
19665;DHT22;9980;51.020;7.772;2023-12-20T01:13:20;9.90;99.90
19665;DHT22;9980;51.020;7.772;2023-12-20T01:15:47;9.90;99.90
19665;DHT22;9980;51.020;7.772;2023-12-20T01:18:14;9.90;99.90
19665;DHT22;9980;51.020;7.772;2023-12-20T01:20:41;9.90;99.90
19665;DHT22;9980;51.020;7.772;2023-12-20T01:23:09;9.90;99.90
19665;DHT22;9980;51.020;7.772;2023-12-20T01:25:36;9.90;99.90
19665;DHT22;9980;51.020;7.772;2023-12-20T01:28:03;9.90;99.90
19665;DHT22;9980;51.020;7.772;2023-12-20T01:30:30;9.90;99.90
19665;DHT22;9980;51.020;7.772;2023-12-20T01:32:59;9.90;99.90
19665;DHT22;9980;51.020;7.772;2023-12-20T01:35:27;9.90;99.90
19665;DHT22;9980;51.020;7.772;2023-12-20T01:37:54;9.90;99.90
19665;DHT22;9980;51.020;7.772;2023-12-20T01:40:23;9.90;99.90
19665;DHT22;9980;51.020;7.772;2023-12-20T01:43:00;9.90;99.90
19665;DHT22;9980;51.020;7.772;2023-12-20T01:45:28;9.80;99.90
19665;DHT22;9980;51.020;7.772;2023-12-20T01:47:57;9.80;99.90
19665;DHT22;9980;51.020;7.772;2023-12-20T01:50:25;9.80;99.90
19665;DHT22;9980;51.020;7.772;2023-12-20T01:52:58;9.80;99.90
19665;DHT22;9980;51.020;7.772;2023-12-20T01:55:29;9.70;99.90
19665;DHT22;9980;51.020;7.772;2023-12-20T01:57:59;9.70;99.90
19665;DHT22;9980;51.020;7.772;2023-12-20T02:00:28;9.70;99.90
19665;DHT22;9980;51.020;7.772;2023-12-20T02:03:00;9.60;99.90
19665;DHT22;9980;51.020;7.772;2023-12-20T02:05:30;9.60;99.90
19665;DHT22;9980;51.020;7.772;2023-12-20T02:07:58;9.60;99.90
19665;DHT22;9980;51.020;7.772;2023-12-20T02:10:25;9.60;99.90
19665;DHT22;9980;51.020;7.772;2023-12-20T02:12:53;9.60;99.90
19665;DHT22;9980;51.020;7.772;2023-12-20T02:15:20;9.50;99.90
19665;DHT22;9980;51.020;7.772;2023-12-20T02:17:48;9.50;99.90
19665;DHT22;9980;51.020;7.772;2023-12-20T02:20:15;9.40;99.90
19665;DHT22;9980;51.020;7.772;2023-12-20T02:22:42;9.40;99.90
19665;DHT22;9980;51.020;7.772;2023-12-20T02:25:09;9.40;99.90
19665;DHT22;9980;51.020;7.772;2023-12-20T02:27:36;9.30;99.90
19665;DHT22;9980;51.020;7.772;2023-12-20T02:30:04;9.30;99.90
19665;DHT22;9980;51.020;7.772;2023-12-20T02:32:32;9.30;99.90
19665;DHT22;9980;51.020;7.772;2023-12-20T02:34:58;9.30;99.90
19665;DHT22;9980;51.020;7.772;2023-12-20T02:37:25;9.30;99.90
19665;DHT22;9980;51.020;7.772;2023-12-20T02:39:52;9.20;99.90
19665;DHT22;9980;51.020;7.772;2023-12-20T02:42:19;9.20;99.90
19665;DHT22;9980;51.020;7.772;2023-12-20T02:44:46;9.20;99.90
19665;DHT22;9980;51.020;7.772;2023-12-20T02:47:13;9.20;99.90
19665;DHT22;9980;51.020;7.772;2023-12-20T02:49:40;9.20;99.90
19665;DHT22;9980;51.020;7.772;2023-12-20T02:52:07;9.20;99.90
19665;DHT22;9980;51.020;7.772;2023-12-20T02:54:34;9.20;99.90
19665;DHT22;9980;51.020;7.772;2023-12-20T02:57:01;9.20;99.90
19665;DHT22;9980;51.020;7.772;2023-12-20T02:59:27;9.10;99.90
19665;DHT22;9980;51.020;7.772;2023-12-20T03:01:55;9.20;99.90
19665;DHT22;9980;51.020;7.772;2023-12-20T03:04:22;9.10;99.90
19665;DHT22;9980;51.020;7.772;2023-12-20T03:06:49;9.10;99.90
19665;DHT22;9980;51.020;7.772;2023-12-20T03:09:16;9.10;99.90
19665;DHT22;9980;51.020;7.772;2023-12-20T03:11:42;9.10;99.90
19665;DHT22;9980;51.020;7.772;2023-12-20T03:14:09;9.10;99.90
19665;DHT22;9980;51.020;7.772;2023-12-20T03:16:36;9.10;99.90
19665;DHT22;9980;51.020;7.772;2023-12-20T03:19:03;9.10;99.90
19665;DHT22;9980;51.020;7.772;2023-12-20T03:21:30;9.10;99.90
19665;DHT22;9980;51.020;7.772;2023-12-20T03:23:57;9.10;99.90
19665;DHT22;9980;51.020;7.772;2023-12-20T03:26:24;9.10;99.90
19665;DHT22;9980;51.020;7.772;2023-12-20T03:28:51;9.10;99.90
19665;DHT22;9980;51.020;7.772;2023-12-20T03:31:18;9.00;99.90
19665;DHT22;9980;51.020;7.772;2023-12-20T03:33:46;9.00;99.90
19665;DHT22;9980;51.020;7.772;2023-12-20T03:36:13;8.90;99.90
19665;DHT22;9980;51.020;7.772;2023-12-20T03:38:40;8.90;99.90
19665;DHT22;9980;51.020;7.772;2023-12-20T03:41:07;8.90;99.90
19665;DHT22;9980;51.020;7.772;2023-12-20T03:43:34;8.90;99.90
19665;DHT22;9980;51.020;7.772;2023-12-20T03:46:02;8.80;99.90
19665;DHT22;9980;51.020;7.772;2023-12-20T03:48:33;8.80;99.90
19665;DHT22;9980;51.020;7.772;2023-12-20T03:51:00;8.80;99.90
19665;DHT22;9980;51.020;7.772;2023-12-20T03:53:26;8.80;99.90
19665;DHT22;9980;51.020;7.772;2023-12-20T03:55:54;8.80;99.90
19665;DHT22;9980;51.020;7.772;2023-12-20T03:58:20;8.80;99.90
19665;DHT22;9980;51.020;7.772;2023-12-20T04:00:47;8.70;99.90
19665;DHT22;9980;51.020;7.772;2023-12-20T04:03:14;8.70;99.90
19665;DHT22;9980;51.020;7.772;2023-12-20T04:05:41;8.70;99.90
19665;DHT22;9980;51.020;7.772;2023-12-20T04:08:09;8.70;99.90
19665;DHT22;9980;51.020;7.772;2023-12-20T04:10:36;8.70;99.90
19665;DHT22;9980;51.020;7.772;2023-12-20T04:13:04;8.70;99.90
19665;DHT22;9980;51.020;7.772;2023-12-20T04:15:31;8.70;99.90
19665;DHT22;9980;51.020;7.772;2023-12-20T04:17:58;8.70;99.90
19665;DHT22;9980;51.020;7.772;2023-12-20T04:20:25;8.70;99.90
19665;DHT22;9980;51.020;7.772;2023-12-20T04:22:52;8.70;99.90
19665;DHT22;9980;51.020;7.772;2023-12-20T04:25:19;8.70;99.90
19665;DHT22;9980;51.020;7.772;2023-12-20T04:27:46;8.70;99.90
19665;DHT22;9980;51.020;7.772;2023-12-20T04:30:13;8.70;99.90
19665;DHT22;9980;51.020;7.772;2023-12-20T04:32:40;8.70;99.90
19665;DHT22;9980;51.020;7.772;2023-12-20T04:35:07;8.70;99.90
19665;DHT22;9980;51.020;7.772;2023-12-20T04:37:35;8.70;99.90
19665;DHT22;9980;51.020;7.772;2023-12-20T04:40:02;8.60;99.90
19665;DHT22;9980;51.020;7.772;2023-12-20T04:42:29;8.70;99.90
19665;DHT22;9980;51.020;7.772;2023-12-20T04:44:56;8.60;99.90
19665;DHT22;9980;51.020;7.772;2023-12-20T04:47:23;8.60;99.90
19665;DHT22;9980;51.020;7.772;2023-12-20T04:49:50;8.60;99.90
19665;DHT22;9980;51.020;7.772;2023-12-20T04:52:16;8.60;99.90
19665;DHT22;9980;51.020;7.772;2023-12-20T04:54:44;8.60;99.90
19665;DHT22;9980;51.020;7.772;2023-12-20T04:57:11;8.50;99.90
19665;DHT22;9980;51.020;7.772;2023-12-20T04:59:37;8.60;99.90
19665;DHT22;9980;51.020;7.772;2023-12-20T05:02:04;8.50;99.90
19665;DHT22;9980;51.020;7.772;2023-12-20T05:04:31;8.50;99.90
19665;DHT22;9980;51.020;7.772;2023-12-20T05:06:58;8.50;99.90
19665;DHT22;9980;51.020;7.772;2023-12-20T05:09:25;8.50;99.90
19665;DHT22;9980;51.020;7.772;2023-12-20T05:11:52;8.40;99.90
19665;DHT22;9980;51.020;7.772;2023-12-20T05:14:19;8.40;99.90
19665;DHT22;9980;51.020;7.772;2023-12-20T05:16:46;8.40;99.90
19665;DHT22;9980;51.020;7.772;2023-12-20T05:19:13;8.40;99.90
19665;DHT22;9980;51.020;7.772;2023-12-20T05:21:40;8.40;99.90
19665;DHT22;9980;51.020;7.772;2023-12-20T05:24:07;8.40;99.90
19665;DHT22;9980;51.020;7.772;2023-12-20T05:26:34;8.40;99.90
19665;DHT22;9980;51.020;7.772;2023-12-20T05:29:01;8.40;99.90
19665;DHT22;9980;51.020;7.772;2023-12-20T05:31:28;8.40;99.90
19665;DHT22;9980;51.020;7.772;2023-12-20T05:33:55;8.40;99.90
19665;DHT22;9980;51.020;7.772;2023-12-20T05:36:22;8.40;99.90
19665;DHT22;9980;51.020;7.772;2023-12-20T05:38:49;8.40;99.90
19665;DHT22;9980;51.020;7.772;2023-12-20T05:41:15;8.40;99.90
19665;DHT22;9980;51.020;7.772;2023-12-20T05:43:42;8.40;99.90
19665;DHT22;9980;51.020;7.772;2023-12-20T05:46:12;8.40;99.90
19665;DHT22;9980;51.020;7.772;2023-12-20T05:48:39;8.40;99.90
19665;DHT22;9980;51.020;7.772;2023-12-20T05:51:06;8.40;99.90
19665;DHT22;9980;51.020;7.772;2023-12-20T05:53:33;8.40;99.90
19665;DHT22;9980;51.020;7.772;2023-12-20T05:56:00;8.40;99.90
19665;DHT22;9980;51.020;7.772;2023-12-20T05:58:27;8.40;99.90
19665;DHT22;9980;51.020;7.772;2023-12-20T06:00:54;8.40;99.90
19665;DHT22;9980;51.020;7.772;2023-12-20T06:03:21;8.40;99.90
19665;DHT22;9980;51.020;7.772;2023-12-20T06:05:48;8.40;99.90
19665;DHT22;9980;51.020;7.772;2023-12-20T06:08:15;8.40;99.90
19665;DHT22;9980;51.020;7.772;2023-12-20T06:10:41;8.40;99.90
19665;DHT22;9980;51.020;7.772;2023-12-20T06:13:08;8.40;99.90
19665;DHT22;9980;51.020;7.772;2023-12-20T06:15:35;8.40;99.90
19665;DHT22;9980;51.020;7.772;2023-12-20T06:18:02;8.40;99.90
19665;DHT22;9980;51.020;7.772;2023-12-20T06:20:29;8.40;99.90
19665;DHT22;9980;51.020;7.772;2023-12-20T06:22:56;8.40;99.90
19665;DHT22;9980;51.020;7.772;2023-12-20T06:25:23;8.40;99.90
19665;DHT22;9980;51.020;7.772;2023-12-20T06:27:50;8.40;99.90
19665;DHT22;9980;51.020;7.772;2023-12-20T06:30:17;8.40;99.90
19665;DHT22;9980;51.020;7.772;2023-12-20T06:32:44;8.40;99.90
19665;DHT22;9980;51.020;7.772;2023-12-20T06:35:13;8.40;99.90
19665;DHT22;9980;51.020;7.772;2023-12-20T06:37:40;8.40;99.90
19665;DHT22;9980;51.020;7.772;2023-12-20T06:40:10;8.40;99.90
19665;DHT22;9980;51.020;7.772;2023-12-20T06:42:44;8.40;99.90
19665;DHT22;9980;51.020;7.772;2023-12-20T06:45:24;8.40;99.90
19665;DHT22;9980;51.020;7.772;2023-12-20T06:47:51;8.40;99.90
19665;DHT22;9980;51.020;7.772;2023-12-20T06:50:18;8.40;99.90
19665;DHT22;9980;51.020;7.772;2023-12-20T06:52:45;8.40;99.90
19665;DHT22;9980;51.020;7.772;2023-12-20T06:55:12;8.40;99.90
19665;DHT22;9980;51.020;7.772;2023-12-20T06:57:39;8.40;99.90
19665;DHT22;9980;51.020;7.772;2023-12-20T07:00:06;8.40;99.90
19665;DHT22;9980;51.020;7.772;2023-12-20T07:02:35;8.40;99.90
19665;DHT22;9980;51.020;7.772;2023-12-20T07:05:02;8.40;99.90
19665;DHT22;9980;51.020;7.772;2023-12-20T07:07:29;8.40;99.90
19665;DHT22;9980;51.020;7.772;2023-12-20T07:09:56;8.40;99.90
19665;DHT22;9980;51.020;7.772;2023-12-20T07:12:23;8.40;99.90
19665;DHT22;9980;51.020;7.772;2023-12-20T07:14:50;8.40;99.90
19665;DHT22;9980;51.020;7.772;2023-12-20T07:17:17;8.40;99.90
19665;DHT22;9980;51.020;7.772;2023-12-20T07:19:44;8.40;99.90
19665;DHT22;9980;51.020;7.772;2023-12-20T07:22:11;8.40;99.90
19665;DHT22;9980;51.020;7.772;2023-12-20T07:24:38;8.40;99.90
19665;DHT22;9980;51.020;7.772;2023-12-20T07:27:04;8.40;99.90
19665;DHT22;9980;51.020;7.772;2023-12-20T07:29:31;8.40;99.90
19665;DHT22;9980;51.020;7.772;2023-12-20T07:31:58;8.40;99.90
19665;DHT22;9980;51.020;7.772;2023-12-20T07:34:25;8.30;99.90
19665;DHT22;9980;51.020;7.772;2023-12-20T07:36:52;8.40;99.90
19665;DHT22;9980;51.020;7.772;2023-12-20T07:39:19;8.40;99.90
19665;DHT22;9980;51.020;7.772;2023-12-20T07:41:46;8.40;99.90
19665;DHT22;9980;51.020;7.772;2023-12-20T07:44:13;8.40;99.90
19665;DHT22;9980;51.020;7.772;2023-12-20T07:46:42;8.40;99.90
19665;DHT22;9980;51.020;7.772;2023-12-20T07:49:09;8.40;99.90
19665;DHT22;9980;51.020;7.772;2023-12-20T07:51:36;8.30;99.90
19665;DHT22;9980;51.020;7.772;2023-12-20T07:54:03;8.30;99.90
19665;DHT22;9980;51.020;7.772;2023-12-20T07:56:31;8.30;99.90
19665;DHT22;9980;51.020;7.772;2023-12-20T07:58:58;8.40;99.90
19665;DHT22;9980;51.020;7.772;2023-12-20T08:01:26;8.30;99.90
19665;DHT22;9980;51.020;7.772;2023-12-20T08:03:53;8.40;99.90
19665;DHT22;9980;51.020;7.772;2023-12-20T08:06:21;8.40;99.90
19665;DHT22;9980;51.020;7.772;2023-12-20T08:08:48;8.30;99.90
19665;DHT22;9980;51.020;7.772;2023-12-20T08:11:27;8.40;99.90
19665;DHT22;9980;51.020;7.772;2023-12-20T08:13:55;8.40;99.90
19665;DHT22;9980;51.020;7.772;2023-12-20T08:16:22;8.40;99.90
19665;DHT22;9980;51.020;7.772;2023-12-20T08:18:48;8.40;99.90
19665;DHT22;9980;51.020;7.772;2023-12-20T08:21:17;8.40;99.90
19665;DHT22;9980;51.020;7.772;2023-12-20T08:23:46;8.40;99.90
19665;DHT22;9980;51.020;7.772;2023-12-20T08:26:14;8.40;99.90
19665;DHT22;9980;51.020;7.772;2023-12-20T08:28:47;8.40;99.90
19665;DHT22;9980;51.020;7.772;2023-12-20T08:31:15;8.40;99.90
19665;DHT22;9980;51.020;7.772;2023-12-20T08:33:47;8.40;99.90
19665;DHT22;9980;51.020;7.772;2023-12-20T08:36:15;8.40;99.90
19665;DHT22;9980;51.020;7.772;2023-12-20T08:38:44;8.40;99.90
19665;DHT22;9980;51.020;7.772;2023-12-20T08:41:11;8.40;99.90
19665;DHT22;9980;51.020;7.772;2023-12-20T08:43:38;8.40;99.90
19665;DHT22;9980;51.020;7.772;2023-12-20T08:46:06;8.40;99.90
19665;DHT22;9980;51.020;7.772;2023-12-20T08:48:36;8.40;99.90
19665;DHT22;9980;51.020;7.772;2023-12-20T08:51:04;8.40;99.90
19665;DHT22;9980;51.020;7.772;2023-12-20T08:53:33;8.40;99.90
19665;DHT22;9980;51.020;7.772;2023-12-20T08:56:00;8.40;99.90
19665;DHT22;9980;51.020;7.772;2023-12-20T08:58:28;8.40;99.90
19665;DHT22;9980;51.020;7.772;2023-12-20T09:00:56;8.40;99.90
19665;DHT22;9980;51.020;7.772;2023-12-20T09:03:24;8.50;99.90
19665;DHT22;9980;51.020;7.772;2023-12-20T09:05:51;8.40;99.90
19665;DHT22;9980;51.020;7.772;2023-12-20T09:08:18;8.50;99.90
19665;DHT22;9980;51.020;7.772;2023-12-20T09:10:45;8.40;99.90
19665;DHT22;9980;51.020;7.772;2023-12-20T09:13:12;8.40;99.90
19665;DHT22;9980;51.020;7.772;2023-12-20T09:15:39;8.40;99.90
19665;DHT22;9980;51.020;7.772;2023-12-20T09:18:07;8.50;99.90
19665;DHT22;9980;51.020;7.772;2023-12-20T09:20:34;8.50;99.90
19665;DHT22;9980;51.020;7.772;2023-12-20T09:23:02;8.40;99.90
19665;DHT22;9980;51.020;7.772;2023-12-20T09:25:29;8.50;99.90
19665;DHT22;9980;51.020;7.772;2023-12-20T09:27:56;8.40;99.90
19665;DHT22;9980;51.020;7.772;2023-12-20T09:30:23;8.50;99.90
19665;DHT22;9980;51.020;7.772;2023-12-20T09:32:54;8.50;99.90
19665;DHT22;9980;51.020;7.772;2023-12-20T09:35:22;8.50;99.90
19665;DHT22;9980;51.020;7.772;2023-12-20T09:37:49;8.50;99.90
19665;DHT22;9980;51.020;7.772;2023-12-20T09:40:19;8.50;99.90
19665;DHT22;9980;51.020;7.772;2023-12-20T09:45:30;8.50;99.90
19665;DHT22;9980;51.020;7.772;2023-12-20T09:47:58;8.50;99.90
19665;DHT22;9980;51.020;7.772;2023-12-20T09:50:25;8.50;99.90
19665;DHT22;9980;51.020;7.772;2023-12-20T09:52:53;8.50;99.90
19665;DHT22;9980;51.020;7.772;2023-12-20T09:55:25;8.50;99.90
19665;DHT22;9980;51.020;7.772;2023-12-20T09:57:54;8.50;99.90
19665;DHT22;9980;51.020;7.772;2023-12-20T10:00:21;8.50;99.90
19665;DHT22;9980;51.020;7.772;2023-12-20T10:02:59;8.50;99.90
19665;DHT22;9980;51.020;7.772;2023-12-20T10:05:32;8.50;99.90
19665;DHT22;9980;51.020;7.772;2023-12-20T10:08:00;8.50;99.90
19665;DHT22;9980;51.020;7.772;2023-12-20T10:10:29;8.50;99.90
19665;DHT22;9980;51.020;7.772;2023-12-20T10:13:11;8.50;99.90
19665;DHT22;9980;51.020;7.772;2023-12-20T10:15:40;8.50;99.90
19665;DHT22;9980;51.020;7.772;2023-12-20T10:18:08;8.50;99.90
19665;DHT22;9980;51.020;7.772;2023-12-20T10:20:36;8.50;99.90
19665;DHT22;9980;51.020;7.772;2023-12-20T10:23:03;8.50;99.90
19665;DHT22;9980;51.020;7.772;2023-12-20T10:25:30;8.50;99.90
19665;DHT22;9980;51.020;7.772;2023-12-20T10:30:37;8.50;99.90
19665;DHT22;9980;51.020;7.772;2023-12-20T10:33:08;8.50;99.90
19665;DHT22;9980;51.020;7.772;2023-12-20T10:35:38;8.50;99.90
19665;DHT22;9980;51.020;7.772;2023-12-20T10:38:11;8.50;99.90
19665;DHT22;9980;51.020;7.772;2023-12-20T10:40:40;8.50;99.90
19665;DHT22;9980;51.020;7.772;2023-12-20T10:43:08;8.60;99.90
19665;DHT22;9980;51.020;7.772;2023-12-20T10:45:36;8.60;99.90
19665;DHT22;9980;51.020;7.772;2023-12-20T10:48:04;8.50;99.90
19665;DHT22;9980;51.020;7.772;2023-12-20T10:50:32;8.60;99.90
19665;DHT22;9980;51.020;7.772;2023-12-20T10:53:02;8.60;99.90
19665;DHT22;9980;51.020;7.772;2023-12-20T10:55:30;8.60;99.90
19665;DHT22;9980;51.020;7.772;2023-12-20T10:58:01;8.60;99.90
19665;DHT22;9980;51.020;7.772;2023-12-20T11:00:32;8.60;99.90
19665;DHT22;9980;51.020;7.772;2023-12-20T11:03:08;8.60;99.90
19665;DHT22;9980;51.020;7.772;2023-12-20T11:08:38;8.60;99.90
19665;DHT22;9980;51.020;7.772;2023-12-20T11:11:22;8.60;99.90
19665;DHT22;9980;51.020;7.772;2023-12-20T11:14:07;8.60;99.90
19665;DHT22;9980;51.020;7.772;2023-12-20T11:16:40;8.60;99.90
19665;DHT22;9980;51.020;7.772;2023-12-20T11:19:20;8.60;99.90
19665;DHT22;9980;51.020;7.772;2023-12-20T11:21:47;8.60;99.90
19665;DHT22;9980;51.020;7.772;2023-12-20T11:24:15;8.60;99.90
19665;DHT22;9980;51.020;7.772;2023-12-20T11:26:47;8.60;99.90
19665;DHT22;9980;51.020;7.772;2023-12-20T11:29:37;8.60;99.90
19665;DHT22;9980;51.020;7.772;2023-12-20T11:37:36;8.60;99.90
19665;DHT22;9980;51.020;7.772;2023-12-20T11:40:08;8.60;99.90
19665;DHT22;9980;51.020;7.772;2023-12-20T11:42:45;8.60;99.90
19665;DHT22;9980;51.020;7.772;2023-12-20T11:45:19;8.60;99.90
19665;DHT22;9980;51.020;7.772;2023-12-20T11:47:50;8.60;99.90
19665;DHT22;9980;51.020;7.772;2023-12-20T11:50:18;8.60;99.90
19665;DHT22;9980;51.020;7.772;2023-12-20T11:52:46;8.60;99.90
19665;DHT22;9980;51.020;7.772;2023-12-20T11:55:14;8.60;99.90
19665;DHT22;9980;51.020;7.772;2023-12-20T11:57:42;8.60;99.90
19665;DHT22;9980;51.020;7.772;2023-12-20T12:00:11;8.60;99.90
19665;DHT22;9980;51.020;7.772;2023-12-20T12:02:39;8.60;99.90
19665;DHT22;9980;51.020;7.772;2023-12-20T12:05:06;8.60;99.90
19665;DHT22;9980;51.020;7.772;2023-12-20T12:07:34;8.60;99.90
19665;DHT22;9980;51.020;7.772;2023-12-20T12:10:02;8.60;99.90
19665;DHT22;9980;51.020;7.772;2023-12-20T12:12:30;8.60;99.90
19665;DHT22;9980;51.020;7.772;2023-12-20T12:14:59;8.60;99.90
19665;DHT22;9980;51.020;7.772;2023-12-20T12:17:26;8.60;99.90
19665;DHT22;9980;51.020;7.772;2023-12-20T12:20:05;8.60;99.90
19665;DHT22;9980;51.020;7.772;2023-12-20T12:22:33;8.70;99.90
19665;DHT22;9980;51.020;7.772;2023-12-20T12:25:10;8.60;99.90
19665;DHT22;9980;51.020;7.772;2023-12-20T12:27:42;8.60;99.90
19665;DHT22;9980;51.020;7.772;2023-12-20T12:30:10;8.70;99.90
19665;DHT22;9980;51.020;7.772;2023-12-20T12:32:40;8.70;99.90
19665;DHT22;9980;51.020;7.772;2023-12-20T12:35:07;8.70;99.90
19665;DHT22;9980;51.020;7.772;2023-12-20T12:37:38;8.70;99.90
19665;DHT22;9980;51.020;7.772;2023-12-20T12:40:16;8.70;99.90
19665;DHT22;9980;51.020;7.772;2023-12-20T12:42:45;8.70;99.90
19665;DHT22;9980;51.020;7.772;2023-12-20T12:45:12;8.70;99.90
19665;DHT22;9980;51.020;7.772;2023-12-20T12:47:39;8.70;99.90
19665;DHT22;9980;51.020;7.772;2023-12-20T12:50:07;8.70;99.90
19665;DHT22;9980;51.020;7.772;2023-12-20T12:52:35;8.70;99.90
19665;DHT22;9980;51.020;7.772;2023-12-20T12:55:02;8.70;99.90
19665;DHT22;9980;51.020;7.772;2023-12-20T12:57:31;8.70;99.90
19665;DHT22;9980;51.020;7.772;2023-12-20T12:59:59;8.70;99.90
19665;DHT22;9980;51.020;7.772;2023-12-20T13:02:26;8.80;99.90
19665;DHT22;9980;51.020;7.772;2023-12-20T13:04:53;8.70;99.90
19665;DHT22;9980;51.020;7.772;2023-12-20T13:07:20;8.70;99.90
19665;DHT22;9980;51.020;7.772;2023-12-20T13:09:47;8.80;99.90
19665;DHT22;9980;51.020;7.772;2023-12-20T13:12:14;8.70;99.90
19665;DHT22;9980;51.020;7.772;2023-12-20T13:14:41;8.80;99.90
19665;DHT22;9980;51.020;7.772;2023-12-20T13:17:08;8.70;99.90
19665;DHT22;9980;51.020;7.772;2023-12-20T13:19:35;8.70;99.90
19665;DHT22;9980;51.020;7.772;2023-12-20T13:22:03;8.80;99.90
19665;DHT22;9980;51.020;7.772;2023-12-20T13:24:30;8.80;99.90
19665;DHT22;9980;51.020;7.772;2023-12-20T13:26:57;8.80;99.90
19665;DHT22;9980;51.020;7.772;2023-12-20T13:29:24;8.80;99.90
19665;DHT22;9980;51.020;7.772;2023-12-20T13:31:53;8.80;99.90
19665;DHT22;9980;51.020;7.772;2023-12-20T13:34:21;8.80;99.90
19665;DHT22;9980;51.020;7.772;2023-12-20T13:36:48;8.80;99.90
19665;DHT22;9980;51.020;7.772;2023-12-20T13:39:17;8.80;99.90
19665;DHT22;9980;51.020;7.772;2023-12-20T13:41:44;8.80;99.90
19665;DHT22;9980;51.020;7.772;2023-12-20T13:44:11;8.80;99.90
19665;DHT22;9980;51.020;7.772;2023-12-20T13:46:39;8.80;99.90
19665;DHT22;9980;51.020;7.772;2023-12-20T13:49:10;8.80;99.90
19665;DHT22;9980;51.020;7.772;2023-12-20T13:51:38;8.80;99.90
19665;DHT22;9980;51.020;7.772;2023-12-20T13:54:05;8.80;99.90
19665;DHT22;9980;51.020;7.772;2023-12-20T13:56:32;8.80;99.90
19665;DHT22;9980;51.020;7.772;2023-12-20T13:59:12;8.80;99.90
19665;DHT22;9980;51.020;7.772;2023-12-20T14:01:40;8.80;99.90
19665;DHT22;9980;51.020;7.772;2023-12-20T14:04:07;8.80;99.90
19665;DHT22;9980;51.020;7.772;2023-12-20T14:06:34;8.80;99.90
19665;DHT22;9980;51.020;7.772;2023-12-20T14:09:01;8.80;99.90
19665;DHT22;9980;51.020;7.772;2023-12-20T14:11:29;8.90;99.90
19665;DHT22;9980;51.020;7.772;2023-12-20T14:13:56;8.90;99.90
19665;DHT22;9980;51.020;7.772;2023-12-20T14:16:24;8.80;99.90
19665;DHT22;9980;51.020;7.772;2023-12-20T14:18:51;8.90;99.90
19665;DHT22;9980;51.020;7.772;2023-12-20T14:21:19;8.80;99.90
19665;DHT22;9980;51.020;7.772;2023-12-20T14:23:46;8.90;99.90
19665;DHT22;9980;51.020;7.772;2023-12-20T14:26:15;8.90;99.90
19665;DHT22;9980;51.020;7.772;2023-12-20T14:28:42;8.90;99.90
19665;DHT22;9980;51.020;7.772;2023-12-20T14:31:10;8.90;99.90
19665;DHT22;9980;51.020;7.772;2023-12-20T14:33:37;8.90;99.90
19665;DHT22;9980;51.020;7.772;2023-12-20T14:36:06;8.90;99.90
19665;DHT22;9980;51.020;7.772;2023-12-20T14:38:33;8.90;99.90
19665;DHT22;9980;51.020;7.772;2023-12-20T14:41:00;8.90;99.90
19665;DHT22;9980;51.020;7.772;2023-12-20T14:43:27;8.90;99.90
19665;DHT22;9980;51.020;7.772;2023-12-20T14:45:54;8.90;99.90
19665;DHT22;9980;51.020;7.772;2023-12-20T14:48:21;8.90;99.90
19665;DHT22;9980;51.020;7.772;2023-12-20T14:50:48;8.90;99.90
19665;DHT22;9980;51.020;7.772;2023-12-20T14:53:15;8.90;99.90
19665;DHT22;9980;51.020;7.772;2023-12-20T14:55:46;8.90;99.90
19665;DHT22;9980;51.020;7.772;2023-12-20T14:58:13;8.90;99.90
19665;DHT22;9980;51.020;7.772;2023-12-20T15:00:41;8.90;99.90
19665;DHT22;9980;51.020;7.772;2023-12-20T15:03:09;8.90;99.90
19665;DHT22;9980;51.020;7.772;2023-12-20T15:05:36;8.90;99.90
19665;DHT22;9980;51.020;7.772;2023-12-20T15:08:03;9.00;99.90
19665;DHT22;9980;51.020;7.772;2023-12-20T15:10:30;8.90;99.90
19665;DHT22;9980;51.020;7.772;2023-12-20T15:12:57;9.00;99.90
19665;DHT22;9980;51.020;7.772;2023-12-20T15:15:24;8.90;99.90
19665;DHT22;9980;51.020;7.772;2023-12-20T15:17:51;9.00;99.90
19665;DHT22;9980;51.020;7.772;2023-12-20T15:20:19;8.90;99.90
19665;DHT22;9980;51.020;7.772;2023-12-20T15:22:47;9.00;99.90
19665;DHT22;9980;51.020;7.772;2023-12-20T15:25:13;8.90;99.90
19665;DHT22;9980;51.020;7.772;2023-12-20T15:27:50;9.00;99.90
19665;DHT22;9980;51.020;7.772;2023-12-20T15:30:20;9.00;99.90
19665;DHT22;9980;51.020;7.772;2023-12-20T15:32:47;9.00;99.90
19665;DHT22;9980;51.020;7.772;2023-12-20T15:35:14;8.90;99.90
19665;DHT22;9980;51.020;7.772;2023-12-20T15:37:41;9.00;99.90
19665;DHT22;9980;51.020;7.772;2023-12-20T15:40:10;9.00;99.90
19665;DHT22;9980;51.020;7.772;2023-12-20T15:42:38;9.00;99.90
19665;DHT22;9980;51.020;7.772;2023-12-20T15:45:07;9.00;99.90
19665;DHT22;9980;51.020;7.772;2023-12-20T15:47:35;9.00;99.90
19665;DHT22;9980;51.020;7.772;2023-12-20T15:50:05;9.00;99.90
19665;DHT22;9980;51.020;7.772;2023-12-20T15:52:35;9.00;99.90
19665;DHT22;9980;51.020;7.772;2023-12-20T15:55:04;9.00;99.90
19665;DHT22;9980;51.020;7.772;2023-12-20T15:57:31;9.00;99.90
19665;DHT22;9980;51.020;7.772;2023-12-20T16:00:15;9.00;99.90
19665;DHT22;9980;51.020;7.772;2023-12-20T16:02:42;9.00;99.90
19665;DHT22;9980;51.020;7.772;2023-12-20T16:05:09;9.00;99.90
19665;DHT22;9980;51.020;7.772;2023-12-20T16:07:36;9.00;99.90
19665;DHT22;9980;51.020;7.772;2023-12-20T16:10:03;9.00;99.90
19665;DHT22;9980;51.020;7.772;2023-12-20T16:12:30;9.00;99.90
19665;DHT22;9980;51.020;7.772;2023-12-20T16:14:57;9.00;99.90
19665;DHT22;9980;51.020;7.772;2023-12-20T16:17:24;9.10;99.90
19665;DHT22;9980;51.020;7.772;2023-12-20T16:19:51;9.00;99.90
19665;DHT22;9980;51.020;7.772;2023-12-20T16:22:18;9.00;99.90